sensor_id;sensor_type;location;lat;lon;timestamp;temperature;humidity
39347;DHT22;26262;49.836;6.632;2022-08-01T00:00:13;20.30;99.90
39347;DHT22;26262;49.836;6.632;2022-08-01T00:02:39;20.40;99.90
39347;DHT22;26262;49.836;6.632;2022-08-01T00:05:05;20.00;99.90
39347;DHT22;26262;49.836;6.632;2022-08-01T00:07:31;20.00;99.90
39347;DHT22;26262;49.836;6.632;2022-08-01T00:09:57;20.10;99.90
39347;DHT22;26262;49.836;6.632;2022-08-01T00:12:22;20.20;99.90
39347;DHT22;26262;49.836;6.632;2022-08-01T00:14:48;20.00;99.90
39347;DHT22;26262;49.836;6.632;2022-08-01T00:17:14;19.90;99.90
39347;DHT22;26262;49.836;6.632;2022-08-01T00:19:39;19.90;99.90
39347;DHT22;26262;49.836;6.632;2022-08-01T00:22:05;19.70;99.90
39347;DHT22;26262;49.836;6.632;2022-08-01T00:24:31;19.20;99.90
39347;DHT22;26262;49.836;6.632;2022-08-01T00:26:56;19.40;99.90
39347;DHT22;26262;49.836;6.632;2022-08-01T00:29:22;19.30;99.90
39347;DHT22;26262;49.836;6.632;2022-08-01T00:31:47;19.20;99.90
39347;DHT22;26262;49.836;6.632;2022-08-01T00:34:13;19.00;99.90
39347;DHT22;26262;49.836;6.632;2022-08-01T00:36:39;19.10;99.90
39347;DHT22;26262;49.836;6.632;2022-08-01T00:39:04;19.10;99.90
39347;DHT22;26262;49.836;6.632;2022-08-01T00:41:30;19.00;99.90
39347;DHT22;26262;49.836;6.632;2022-08-01T00:43:55;18.70;99.90
39347;DHT22;26262;49.836;6.632;2022-08-01T00:46:21;18.70;99.90
39347;DHT22;26262;49.836;6.632;2022-08-01T00:48:46;18.70;99.90
39347;DHT22;26262;49.836;6.632;2022-08-01T00:51:13;18.80;99.90
39347;DHT22;26262;49.836;6.632;2022-08-01T00:53:39;18.90;99.90
39347;DHT22;26262;49.836;6.632;2022-08-01T00:56:04;19.00;99.90
39347;DHT22;26262;49.836;6.632;2022-08-01T00:58:31;18.90;99.90
39347;DHT22;26262;49.836;6.632;2022-08-01T01:00:58;19.10;99.90
39347;DHT22;26262;49.836;6.632;2022-08-01T01:03:23;19.20;99.90
39347;DHT22;26262;49.836;6.632;2022-08-01T01:06:01;19.30;99.90
39347;DHT22;26262;49.836;6.632;2022-08-01T01:08:37;19.30;99.90
39347;DHT22;26262;49.836;6.632;2022-08-01T01:11:10;19.00;99.90
39347;DHT22;26262;49.836;6.632;2022-08-01T01:13:44;18.90;99.90
39347;DHT22;26262;49.836;6.632;2022-08-01T01:16:15;18.60;99.90
39347;DHT22;26262;49.836;6.632;2022-08-01T01:18:54;18.70;99.90
39347;DHT22;26262;49.836;6.632;2022-08-01T01:26:40;18.70;99.90
39347;DHT22;26262;49.836;6.632;2022-08-01T01:32:04;18.80;99.90
39347;DHT22;26262;49.836;6.632;2022-08-01T01:34:34;19.00;99.90
39347;DHT22;26262;49.836;6.632;2022-08-01T01:37:02;19.00;99.90
39347;DHT22;26262;49.836;6.632;2022-08-01T01:39:30;19.00;99.90
39347;DHT22;26262;49.836;6.632;2022-08-01T01:41:58;18.90;99.90
39347;DHT22;26262;49.836;6.632;2022-08-01T01:44:23;18.90;99.90
39347;DHT22;26262;49.836;6.632;2022-08-01T01:46:51;19.00;99.90
39347;DHT22;26262;49.836;6.632;2022-08-01T01:49:21;18.70;99.90
39347;DHT22;26262;49.836;6.632;2022-08-01T01:51:50;18.50;99.90
39347;DHT22;26262;49.836;6.632;2022-08-01T01:54:16;18.60;99.90
39347;DHT22;26262;49.836;6.632;2022-08-01T01:56:42;18.60;99.90
39347;DHT22;26262;49.836;6.632;2022-08-01T01:59:19;18.70;99.90
39347;DHT22;26262;49.836;6.632;2022-08-01T02:01:48;18.70;99.90
39347;DHT22;26262;49.836;6.632;2022-08-01T02:04:15;18.40;99.90
39347;DHT22;26262;49.836;6.632;2022-08-01T02:06:43;18.50;99.90
39347;DHT22;26262;49.836;6.632;2022-08-01T02:09:09;18.50;99.90
39347;DHT22;26262;49.836;6.632;2022-08-01T02:11:36;18.40;99.90
39347;DHT22;26262;49.836;6.632;2022-08-01T02:14:03;18.20;99.90
39347;DHT22;26262;49.836;6.632;2022-08-01T02:16:31;18.30;99.90
39347;DHT22;26262;49.836;6.632;2022-08-01T02:18:58;18.10;99.90
39347;DHT22;26262;49.836;6.632;2022-08-01T02:21:30;18.00;99.90
39347;DHT22;26262;49.836;6.632;2022-08-01T02:24:06;18.10;99.90
39347;DHT22;26262;49.836;6.632;2022-08-01T02:26:34;18.20;99.90
39347;DHT22;26262;49.836;6.632;2022-08-01T02:29:06;18.20;99.90
39347;DHT22;26262;49.836;6.632;2022-08-01T02:31:35;18.30;99.90
39347;DHT22;26262;49.836;6.632;2022-08-01T02:34:06;18.40;99.90
39347;DHT22;26262;49.836;6.632;2022-08-01T02:36:35;18.40;99.90
39347;DHT22;26262;49.836;6.632;2022-08-01T02:39:06;18.40;99.90
39347;DHT22;26262;49.836;6.632;2022-08-01T02:41:38;18.40;99.90
39347;DHT22;26262;49.836;6.632;2022-08-01T02:44:07;18.40;99.90
39347;DHT22;26262;49.836;6.632;2022-08-01T02:46:39;18.40;99.90
39347;DHT22;26262;49.836;6.632;2022-08-01T02:49:08;18.20;99.90
39347;DHT22;26262;49.836;6.632;2022-08-01T02:51:36;18.20;99.90
39347;DHT22;26262;49.836;6.632;2022-08-01T02:54:04;18.20;99.90
39347;DHT22;26262;49.836;6.632;2022-08-01T02:56:31;18.20;99.90
39347;DHT22;26262;49.836;6.632;2022-08-01T02:59:04;18.10;99.90
39347;DHT22;26262;49.836;6.632;2022-08-01T03:01:31;18.10;99.90
39347;DHT22;26262;49.836;6.632;2022-08-01T03:03:59;18.10;99.90
39347;DHT22;26262;49.836;6.632;2022-08-01T03:06:25;18.10;99.90
39347;DHT22;26262;49.836;6.632;2022-08-01T03:08:52;18.10;99.90
39347;DHT22;26262;49.836;6.632;2022-08-01T03:11:19;18.20;99.90
39347;DHT22;26262;49.836;6.632;2022-08-01T03:13:47;18.20;99.90
39347;DHT22;26262;49.836;6.632;2022-08-01T03:16:15;18.10;99.90
39347;DHT22;26262;49.836;6.632;2022-08-01T03:18:44;18.10;99.90
39347;DHT22;26262;49.836;6.632;2022-08-01T03:21:12;18.10;99.90
39347;DHT22;26262;49.836;6.632;2022-08-01T03:23:40;17.90;99.90
39347;DHT22;26262;49.836;6.632;2022-08-01T03:26:07;17.90;99.90
39347;DHT22;26262;49.836;6.632;2022-08-01T03:28:33;17.90;99.90
39347;DHT22;26262;49.836;6.632;2022-08-01T03:31:00;17.80;99.90
39347;DHT22;26262;49.836;6.632;2022-08-01T03:33:26;17.50;99.90
39347;DHT22;26262;49.836;6.632;2022-08-01T03:35:54;17.40;99.90
39347;DHT22;26262;49.836;6.632;2022-08-01T03:38:23;17.50;99.90
39347;DHT22;26262;49.836;6.632;2022-08-01T03:40:55;17.50;99.90
39347;DHT22;26262;49.836;6.632;2022-08-01T03:43:32;17.60;99.90
39347;DHT22;26262;49.836;6.632;2022-08-01T03:46:04;17.50;99.90
39347;DHT22;26262;49.836;6.632;2022-08-01T03:48:35;17.50;99.90
39347;DHT22;26262;49.836;6.632;2022-08-01T03:51:02;17.60;99.90
39347;DHT22;26262;49.836;6.632;2022-08-01T03:53:30;17.40;99.90
39347;DHT22;26262;49.836;6.632;2022-08-01T03:55:59;17.50;99.90
39347;DHT22;26262;49.836;6.632;2022-08-01T03:58:25;17.40;99.90
39347;DHT22;26262;49.836;6.632;2022-08-01T04:00:52;17.40;99.90
39347;DHT22;26262;49.836;6.632;2022-08-01T04:03:18;17.40;99.90
39347;DHT22;26262;49.836;6.632;2022-08-01T04:05:43;17.50;99.90
39347;DHT22;26262;49.836;6.632;2022-08-01T04:08:09;17.50;99.90
39347;DHT22;26262;49.836;6.632;2022-08-01T04:10:36;17.60;99.90
39347;DHT22;26262;49.836;6.632;2022-08-01T04:13:02;17.60;99.90
39347;DHT22;26262;49.836;6.632;2022-08-01T04:15:28;17.60;99.90
39347;DHT22;26262;49.836;6.632;2022-08-01T04:17:53;17.60;99.90
39347;DHT22;26262;49.836;6.632;2022-08-01T04:20:20;17.60;99.90
39347;DHT22;26262;49.836;6.632;2022-08-01T04:22:45;17.60;99.90
39347;DHT22;26262;49.836;6.632;2022-08-01T04:25:21;17.60;99.90
39347;DHT22;26262;49.836;6.632;2022-08-01T04:27:49;17.60;99.90
39347;DHT22;26262;49.836;6.632;2022-08-01T04:30:17;17.60;99.90
39347;DHT22;26262;49.836;6.632;2022-08-01T04:32:46;17.40;99.90
39347;DHT22;26262;49.836;6.632;2022-08-01T04:35:13;17.30;99.90
39347;DHT22;26262;49.836;6.632;2022-08-01T04:37:43;17.40;99.90
39347;DHT22;26262;49.836;6.632;2022-08-01T04:40:10;17.50;99.90
39347;DHT22;26262;49.836;6.632;2022-08-01T04:42:36;17.50;99.90
39347;DHT22;26262;49.836;6.632;2022-08-01T04:45:02;17.50;99.90
39347;DHT22;26262;49.836;6.632;2022-08-01T04:47:28;17.50;99.90
39347;DHT22;26262;49.836;6.632;2022-08-01T04:49:55;17.50;99.90
39347;DHT22;26262;49.836;6.632;2022-08-01T04:52:22;17.60;99.90
39347;DHT22;26262;49.836;6.632;2022-08-01T04:54:47;17.70;99.90
39347;DHT22;26262;49.836;6.632;2022-08-01T04:57:13;17.60;99.90
39347;DHT22;26262;49.836;6.632;2022-08-01T04:59:42;17.70;99.90
39347;DHT22;26262;49.836;6.632;2022-08-01T05:02:14;17.70;99.90
39347;DHT22;26262;49.836;6.632;2022-08-01T05:04:41;17.70;99.90
39347;DHT22;26262;49.836;6.632;2022-08-01T05:07:07;17.80;99.90
39347;DHT22;26262;49.836;6.632;2022-08-01T05:09:33;17.80;99.90
39347;DHT22;26262;49.836;6.632;2022-08-01T05:11:59;17.80;99.90
39347;DHT22;26262;49.836;6.632;2022-08-01T05:14:27;17.60;99.90
39347;DHT22;26262;49.836;6.632;2022-08-01T05:16:53;17.50;99.90
39347;DHT22;26262;49.836;6.632;2022-08-01T05:19:20;17.70;99.90
39347;DHT22;26262;49.836;6.632;2022-08-01T05:21:46;17.50;99.90
39347;DHT22;26262;49.836;6.632;2022-08-01T05:24:11;17.60;99.90
39347;DHT22;26262;49.836;6.632;2022-08-01T05:26:38;17.60;99.90
39347;DHT22;26262;49.836;6.632;2022-08-01T05:29:04;17.80;99.90
39347;DHT22;26262;49.836;6.632;2022-08-01T05:31:29;17.80;99.90
39347;DHT22;26262;49.836;6.632;2022-08-01T05:33:55;17.80;99.90
39347;DHT22;26262;49.836;6.632;2022-08-01T05:36:20;17.80;99.90
39347;DHT22;26262;49.836;6.632;2022-08-01T05:38:46;17.80;99.90
39347;DHT22;26262;49.836;6.632;2022-08-01T05:41:11;17.90;99.90
39347;DHT22;26262;49.836;6.632;2022-08-01T05:43:37;17.90;99.90
39347;DHT22;26262;49.836;6.632;2022-08-01T05:46:02;17.90;99.90
39347;DHT22;26262;49.836;6.632;2022-08-01T05:48:28;17.90;99.90
39347;DHT22;26262;49.836;6.632;2022-08-01T05:50:54;17.80;99.90
39347;DHT22;26262;49.836;6.632;2022-08-01T05:53:19;18.00;99.90
39347;DHT22;26262;49.836;6.632;2022-08-01T05:55:45;18.20;99.90
39347;DHT22;26262;49.836;6.632;2022-08-01T05:58:12;18.20;99.90
39347;DHT22;26262;49.836;6.632;2022-08-01T06:00:37;18.40;99.90
39347;DHT22;26262;49.836;6.632;2022-08-01T06:03:03;18.40;99.90
39347;DHT22;26262;49.836;6.632;2022-08-01T06:05:28;18.50;99.90
39347;DHT22;26262;49.836;6.632;2022-08-01T06:07:54;18.60;99.90
39347;DHT22;26262;49.836;6.632;2022-08-01T06:10:20;18.70;99.90
39347;DHT22;26262;49.836;6.632;2022-08-01T06:12:45;18.90;99.90
39347;DHT22;26262;49.836;6.632;2022-08-01T06:15:11;18.60;99.90
39347;DHT22;26262;49.836;6.632;2022-08-01T06:17:36;18.60;99.90
39347;DHT22;26262;49.836;6.632;2022-08-01T06:20:03;18.60;99.90
39347;DHT22;26262;49.836;6.632;2022-08-01T06:22:28;18.70;99.90
39347;DHT22;26262;49.836;6.632;2022-08-01T06:24:54;18.90;99.90
39347;DHT22;26262;49.836;6.632;2022-08-01T06:27:20;18.90;99.90
39347;DHT22;26262;49.836;6.632;2022-08-01T06:29:45;18.90;99.90
39347;DHT22;26262;49.836;6.632;2022-08-01T06:32:11;19.00;99.90
39347;DHT22;26262;49.836;6.632;2022-08-01T06:34:36;19.00;99.90
39347;DHT22;26262;49.836;6.632;2022-08-01T06:37:02;18.90;99.90
39347;DHT22;26262;49.836;6.632;2022-08-01T06:39:27;19.00;99.90
39347;DHT22;26262;49.836;6.632;2022-08-01T06:41:53;19.00;99.90
39347;DHT22;26262;49.836;6.632;2022-08-01T06:44:18;19.00;99.90
39347;DHT22;26262;49.836;6.632;2022-08-01T06:46:44;19.00;99.90
39347;DHT22;26262;49.836;6.632;2022-08-01T06:49:09;19.00;99.90
39347;DHT22;26262;49.836;6.632;2022-08-01T06:51:35;19.10;99.90
39347;DHT22;26262;49.836;6.632;2022-08-01T06:54:00;19.30;99.90
39347;DHT22;26262;49.836;6.632;2022-08-01T06:56:26;19.40;99.90
39347;DHT22;26262;49.836;6.632;2022-08-01T06:58:52;19.50;99.90
39347;DHT22;26262;49.836;6.632;2022-08-01T07:01:17;19.60;99.90
39347;DHT22;26262;49.836;6.632;2022-08-01T07:03:43;19.80;99.90
39347;DHT22;26262;49.836;6.632;2022-08-01T07:06:08;19.90;99.90
39347;DHT22;26262;49.836;6.632;2022-08-01T07:08:34;20.00;99.90
39347;DHT22;26262;49.836;6.632;2022-08-01T07:11:00;20.20;99.90
39347;DHT22;26262;49.836;6.632;2022-08-01T07:13:27;20.30;99.90
39347;DHT22;26262;49.836;6.632;2022-08-01T07:15:52;20.30;99.90
39347;DHT22;26262;49.836;6.632;2022-08-01T07:18:19;20.30;99.90
39347;DHT22;26262;49.836;6.632;2022-08-01T07:20:44;20.50;99.90
39347;DHT22;26262;49.836;6.632;2022-08-01T07:23:13;20.50;99.90
39347;DHT22;26262;49.836;6.632;2022-08-01T07:25:38;20.60;99.90
39347;DHT22;26262;49.836;6.632;2022-08-01T07:28:04;20.70;99.90
39347;DHT22;26262;49.836;6.632;2022-08-01T07:30:30;20.60;99.90
39347;DHT22;26262;49.836;6.632;2022-08-01T07:32:56;20.60;99.90
39347;DHT22;26262;49.836;6.632;2022-08-01T07:35:21;20.70;99.90
39347;DHT22;26262;49.836;6.632;2022-08-01T07:37:47;20.60;99.90
39347;DHT22;26262;49.836;6.632;2022-08-01T07:40:13;20.70;99.90
39347;DHT22;26262;49.836;6.632;2022-08-01T07:42:38;20.70;99.90
39347;DHT22;26262;49.836;6.632;2022-08-01T07:45:09;20.70;99.90
39347;DHT22;26262;49.836;6.632;2022-08-01T07:47:34;21.00;99.90
39347;DHT22;26262;49.836;6.632;2022-08-01T07:50:00;21.20;99.90
39347;DHT22;26262;49.836;6.632;2022-08-01T07:52:26;21.40;99.90
39347;DHT22;26262;49.836;6.632;2022-08-01T07:54:52;21.30;99.90
39347;DHT22;26262;49.836;6.632;2022-08-01T07:57:18;21.30;99.90
39347;DHT22;26262;49.836;6.632;2022-08-01T07:59:43;21.50;99.90
39347;DHT22;26262;49.836;6.632;2022-08-01T08:02:09;21.40;99.90
39347;DHT22;26262;49.836;6.632;2022-08-01T08:04:35;21.60;99.90
39347;DHT22;26262;49.836;6.632;2022-08-01T08:07:00;21.70;99.90
39347;DHT22;26262;49.836;6.632;2022-08-01T08:09:26;21.70;99.90
39347;DHT22;26262;49.836;6.632;2022-08-01T08:11:51;21.70;99.90
39347;DHT22;26262;49.836;6.632;2022-08-01T08:14:17;21.80;99.90
39347;DHT22;26262;49.836;6.632;2022-08-01T08:16:44;21.90;99.90
39347;DHT22;26262;49.836;6.632;2022-08-01T08:19:10;22.00;99.90
39347;DHT22;26262;49.836;6.632;2022-08-01T08:21:36;21.90;99.90
39347;DHT22;26262;49.836;6.632;2022-08-01T08:24:03;21.60;99.90
39347;DHT22;26262;49.836;6.632;2022-08-01T08:26:53;21.80;99.90
39347;DHT22;26262;49.836;6.632;2022-08-01T08:29:19;21.60;99.90
39347;DHT22;26262;49.836;6.632;2022-08-01T08:31:45;21.40;99.90
39347;DHT22;26262;49.836;6.632;2022-08-01T08:34:12;21.40;99.90
39347;DHT22;26262;49.836;6.632;2022-08-01T08:36:38;21.30;99.90
39347;DHT22;26262;49.836;6.632;2022-08-01T08:39:04;21.40;99.90
39347;DHT22;26262;49.836;6.632;2022-08-01T08:41:31;21.50;99.90
39347;DHT22;26262;49.836;6.632;2022-08-01T08:43:57;21.60;99.90
39347;DHT22;26262;49.836;6.632;2022-08-01T08:46:27;21.70;99.90
39347;DHT22;26262;49.836;6.632;2022-08-01T08:48:53;21.70;99.90
39347;DHT22;26262;49.836;6.632;2022-08-01T08:51:19;21.60;99.90
39347;DHT22;26262;49.836;6.632;2022-08-01T08:53:46;21.60;99.90
39347;DHT22;26262;49.836;6.632;2022-08-01T08:56:13;21.70;99.90
39347;DHT22;26262;49.836;6.632;2022-08-01T08:58:41;21.30;99.90
39347;DHT22;26262;49.836;6.632;2022-08-01T09:01:09;21.50;99.90
39347;DHT22;26262;49.836;6.632;2022-08-01T09:03:36;21.40;99.90
39347;DHT22;26262;49.836;6.632;2022-08-01T09:06:02;21.60;99.90
39347;DHT22;26262;49.836;6.632;2022-08-01T09:08:28;21.50;99.90
39347;DHT22;26262;49.836;6.632;2022-08-01T09:10:53;21.60;99.90
39347;DHT22;26262;49.836;6.632;2022-08-01T09:13:19;21.60;99.90
39347;DHT22;26262;49.836;6.632;2022-08-01T09:15:51;21.60;99.90
39347;DHT22;26262;49.836;6.632;2022-08-01T09:21:17;21.60;99.90
39347;DHT22;26262;49.836;6.632;2022-08-01T09:23:48;21.80;99.90
39347;DHT22;26262;49.836;6.632;2022-08-01T09:26:16;21.90;99.90
39347;DHT22;26262;49.836;6.632;2022-08-01T09:28:44;21.90;99.90
39347;DHT22;26262;49.836;6.632;2022-08-01T09:31:15;22.00;99.90
39347;DHT22;26262;49.836;6.632;2022-08-01T09:36:17;22.10;99.90
39347;DHT22;26262;49.836;6.632;2022-08-01T09:38:43;22.30;99.90
39347;DHT22;26262;49.836;6.632;2022-08-01T09:41:09;22.30;99.90
39347;DHT22;26262;49.836;6.632;2022-08-01T09:43:37;22.30;99.90
39347;DHT22;26262;49.836;6.632;2022-08-01T09:46:10;22.40;99.90
39347;DHT22;26262;49.836;6.632;2022-08-01T09:48:39;22.70;99.90
39347;DHT22;26262;49.836;6.632;2022-08-01T09:51:07;23.10;99.90
39347;DHT22;26262;49.836;6.632;2022-08-01T09:53:41;23.20;99.90
39347;DHT22;26262;49.836;6.632;2022-08-01T09:56:11;23.00;99.90
39347;DHT22;26262;49.836;6.632;2022-08-01T09:58:57;23.10;99.90
39347;DHT22;26262;49.836;6.632;2022-08-01T10:01:24;23.10;99.90
39347;DHT22;26262;49.836;6.632;2022-08-01T10:04:11;22.70;99.90
39347;DHT22;26262;49.836;6.632;2022-08-01T10:06:38;23.00;99.90
39347;DHT22;26262;49.836;6.632;2022-08-01T10:09:04;22.80;99.90
39347;DHT22;26262;49.836;6.632;2022-08-01T10:11:32;22.80;99.90
39347;DHT22;26262;49.836;6.632;2022-08-01T10:13:59;22.90;99.90
39347;DHT22;26262;49.836;6.632;2022-08-01T10:16:26;22.90;99.90
39347;DHT22;26262;49.836;6.632;2022-08-01T10:18:53;22.90;99.90
39347;DHT22;26262;49.836;6.632;2022-08-01T10:21:20;23.20;99.90
39347;DHT22;26262;49.836;6.632;2022-08-01T10:23:47;23.40;99.90
39347;DHT22;26262;49.836;6.632;2022-08-01T10:26:14;23.70;99.50
39347;DHT22;26262;49.836;6.632;2022-08-01T10:28:41;23.80;99.30
39347;DHT22;26262;49.836;6.632;2022-08-01T10:31:08;23.80;98.50
39347;DHT22;26262;49.836;6.632;2022-08-01T10:33:34;23.90;98.70
39347;DHT22;26262;49.836;6.632;2022-08-01T10:36:02;23.90;98.50
39347;DHT22;26262;49.836;6.632;2022-08-01T10:38:28;24.00;98.10
39347;DHT22;26262;49.836;6.632;2022-08-01T10:40:55;23.70;99.10
39347;DHT22;26262;49.836;6.632;2022-08-01T10:43:22;24.00;98.50
39347;DHT22;26262;49.836;6.632;2022-08-01T10:45:49;24.30;97.60
39347;DHT22;26262;49.836;6.632;2022-08-01T10:48:27;24.10;98.10
39347;DHT22;26262;49.836;6.632;2022-08-01T10:50:55;24.20;97.80
39347;DHT22;26262;49.836;6.632;2022-08-01T10:53:25;24.40;97.40
39347;DHT22;26262;49.836;6.632;2022-08-01T10:58:28;24.80;96.40
39347;DHT22;26262;49.836;6.632;2022-08-01T11:01:20;24.70;97.10
39347;DHT22;26262;49.836;6.632;2022-08-01T11:09:05;25.10;95.40
39347;DHT22;26262;49.836;6.632;2022-08-01T11:12:03;25.90;95.20
39347;DHT22;26262;49.836;6.632;2022-08-01T11:14:34;25.80;94.40
39347;DHT22;26262;49.836;6.632;2022-08-01T11:22:30;25.60;93.30
39347;DHT22;26262;49.836;6.632;2022-08-01T11:24:56;25.50;93.20
39347;DHT22;26262;49.836;6.632;2022-08-01T11:27:29;25.80;93.30
39347;DHT22;26262;49.836;6.632;2022-08-01T11:32:48;25.30;94.20
39347;DHT22;26262;49.836;6.632;2022-08-01T11:35:15;25.50;93.80
39347;DHT22;26262;49.836;6.632;2022-08-01T11:37:40;25.30;93.60
39347;DHT22;26262;49.836;6.632;2022-08-01T11:40:26;25.30;93.90
39347;DHT22;26262;49.836;6.632;2022-08-01T11:45:58;25.40;93.90
39347;DHT22;26262;49.836;6.632;2022-08-01T11:48:25;25.30;93.90
39347;DHT22;26262;49.836;6.632;2022-08-01T11:50:55;25.20;94.40
39347;DHT22;26262;49.836;6.632;2022-08-01T11:53:21;25.30;94.40
39347;DHT22;26262;49.836;6.632;2022-08-01T11:55:49;25.50;93.50
39347;DHT22;26262;49.836;6.632;2022-08-01T11:58:15;25.20;93.90
39347;DHT22;26262;49.836;6.632;2022-08-01T12:00:41;24.90;93.90
39347;DHT22;26262;49.836;6.632;2022-08-01T12:03:15;25.00;94.30
39347;DHT22;26262;49.836;6.632;2022-08-01T12:05:44;25.50;93.80
39347;DHT22;26262;49.836;6.632;2022-08-01T12:08:09;25.80;93.30
39347;DHT22;26262;49.836;6.632;2022-08-01T12:10:35;26.20;93.40
39347;DHT22;26262;49.836;6.632;2022-08-01T12:13:04;26.50;92.10
39347;DHT22;26262;49.836;6.632;2022-08-01T12:15:36;26.70;91.90
39347;DHT22;26262;49.836;6.632;2022-08-01T12:18:06;26.90;91.30
39347;DHT22;26262;49.836;6.632;2022-08-01T12:20:37;27.00;91.40
39347;DHT22;26262;49.836;6.632;2022-08-01T12:23:05;26.60;91.30
39347;DHT22;26262;49.836;6.632;2022-08-01T12:25:31;26.10;91.80
39347;DHT22;26262;49.836;6.632;2022-08-01T12:28:00;25.90;91.70
39347;DHT22;26262;49.836;6.632;2022-08-01T12:30:26;26.30;91.80
39347;DHT22;26262;49.836;6.632;2022-08-01T12:32:54;26.00;91.50
39347;DHT22;26262;49.836;6.632;2022-08-01T12:35:27;26.30;91.70
39347;DHT22;26262;49.836;6.632;2022-08-01T12:38:00;26.20;91.50
39347;DHT22;26262;49.836;6.632;2022-08-01T12:40:29;26.50;91.30
39347;DHT22;26262;49.836;6.632;2022-08-01T12:43:00;26.70;92.40
39347;DHT22;26262;49.836;6.632;2022-08-01T12:45:28;26.90;92.20
39347;DHT22;26262;49.836;6.632;2022-08-01T12:47:54;26.70;91.20
39347;DHT22;26262;49.836;6.632;2022-08-01T12:50:22;26.50;90.50
39347;DHT22;26262;49.836;6.632;2022-08-01T12:52:49;26.20;90.90
39347;DHT22;26262;49.836;6.632;2022-08-01T12:55:22;26.70;90.30
39347;DHT22;26262;49.836;6.632;2022-08-01T12:58:03;26.20;91.30
39347;DHT22;26262;49.836;6.632;2022-08-01T13:00:29;26.70;90.50
39347;DHT22;26262;49.836;6.632;2022-08-01T13:03:06;26.70;90.20
39347;DHT22;26262;49.836;6.632;2022-08-01T13:05:48;26.80;90.30
39347;DHT22;26262;49.836;6.632;2022-08-01T13:08:22;27.20;90.40
39347;DHT22;26262;49.836;6.632;2022-08-01T13:10:49;27.30;90.40
39347;DHT22;26262;49.836;6.632;2022-08-01T13:13:17;27.30;89.20
39347;DHT22;26262;49.836;6.632;2022-08-01T13:15:43;27.40;89.80
39347;DHT22;26262;49.836;6.632;2022-08-01T13:20:49;27.90;89.80
39347;DHT22;26262;49.836;6.632;2022-08-01T13:23:19;27.80;87.80
39347;DHT22;26262;49.836;6.632;2022-08-01T13:25:55;27.80;87.10
39347;DHT22;26262;49.836;6.632;2022-08-01T13:28:24;27.10;88.30
39347;DHT22;26262;49.836;6.632;2022-08-01T13:31:01;26.80;88.40
39347;DHT22;26262;49.836;6.632;2022-08-01T13:33:39;26.70;88.90
39347;DHT22;26262;49.836;6.632;2022-08-01T13:36:06;26.80;89.20
39347;DHT22;26262;49.836;6.632;2022-08-01T13:38:32;27.10;90.40
39347;DHT22;26262;49.836;6.632;2022-08-01T13:41:16;27.30;88.50
39347;DHT22;26262;49.836;6.632;2022-08-01T13:43:41;27.40;88.10
39347;DHT22;26262;49.836;6.632;2022-08-01T13:46:07;27.50;87.50
39347;DHT22;26262;49.836;6.632;2022-08-01T13:48:32;27.60;87.70
39347;DHT22;26262;49.836;6.632;2022-08-01T13:50:58;27.80;87.20
39347;DHT22;26262;49.836;6.632;2022-08-01T13:53:24;27.90;88.30
39347;DHT22;26262;49.836;6.632;2022-08-01T13:55:49;27.80;87.40
39347;DHT22;26262;49.836;6.632;2022-08-01T13:58:15;27.80;86.40
39347;DHT22;26262;49.836;6.632;2022-08-01T14:00:41;28.00;88.40
39347;DHT22;26262;49.836;6.632;2022-08-01T14:03:06;28.90;87.50
39347;DHT22;26262;49.836;6.632;2022-08-01T14:05:32;29.30;84.40
39347;DHT22;26262;49.836;6.632;2022-08-01T14:07:58;29.30;82.90
39347;DHT22;26262;49.836;6.632;2022-08-01T14:10:24;28.30;83.90
39347;DHT22;26262;49.836;6.632;2022-08-01T14:12:50;28.20;84.40
39347;DHT22;26262;49.836;6.632;2022-08-01T14:15:16;27.90;85.60
39347;DHT22;26262;49.836;6.632;2022-08-01T14:17:42;28.00;87.70
39347;DHT22;26262;49.836;6.632;2022-08-01T14:20:08;28.00;85.40
39347;DHT22;26262;49.836;6.632;2022-08-01T14:22:33;28.10;85.10
39347;DHT22;26262;49.836;6.632;2022-08-01T14:24:59;27.60;85.80
39347;DHT22;26262;49.836;6.632;2022-08-01T14:27:25;27.90;86.10
39347;DHT22;26262;49.836;6.632;2022-08-01T14:29:50;27.90;86.00
39347;DHT22;26262;49.836;6.632;2022-08-01T14:32:15;28.00;86.80
39347;DHT22;26262;49.836;6.632;2022-08-01T14:34:41;27.70;87.60
39347;DHT22;26262;49.836;6.632;2022-08-01T14:37:06;27.70;86.10
39347;DHT22;26262;49.836;6.632;2022-08-01T14:39:32;27.80;87.60
39347;DHT22;26262;49.836;6.632;2022-08-01T14:41:57;28.10;87.80
39347;DHT22;26262;49.836;6.632;2022-08-01T14:44:23;28.30;86.60
39347;DHT22;26262;49.836;6.632;2022-08-01T14:46:49;28.70;85.90
39347;DHT22;26262;49.836;6.632;2022-08-01T14:49:15;28.90;85.00
39347;DHT22;26262;49.836;6.632;2022-08-01T14:51:40;29.00;83.20
39347;DHT22;26262;49.836;6.632;2022-08-01T14:54:06;29.10;85.10
39347;DHT22;26262;49.836;6.632;2022-08-01T14:56:32;28.80;85.30
39347;DHT22;26262;49.836;6.632;2022-08-01T14:58:57;28.00;84.90
39347;DHT22;26262;49.836;6.632;2022-08-01T15:01:24;27.90;84.90
39347;DHT22;26262;49.836;6.632;2022-08-01T15:03:49;27.60;85.20
39347;DHT22;26262;49.836;6.632;2022-08-01T15:06:16;27.60;85.60
39347;DHT22;26262;49.836;6.632;2022-08-01T15:08:42;27.80;86.20
39347;DHT22;26262;49.836;6.632;2022-08-01T15:11:08;27.60;87.80
39347;DHT22;26262;49.836;6.632;2022-08-01T15:13:34;27.60;87.40
39347;DHT22;26262;49.836;6.632;2022-08-01T15:16:00;27.40;88.20
39347;DHT22;26262;49.836;6.632;2022-08-01T15:18:26;27.60;88.30
39347;DHT22;26262;49.836;6.632;2022-08-01T15:20:52;27.40;88.10
39347;DHT22;26262;49.836;6.632;2022-08-01T15:23:17;27.50;88.20
39347;DHT22;26262;49.836;6.632;2022-08-01T15:25:43;27.60;88.20
39347;DHT22;26262;49.836;6.632;2022-08-01T15:28:09;27.50;89.50
39347;DHT22;26262;49.836;6.632;2022-08-01T15:30:35;27.60;88.90
39347;DHT22;26262;49.836;6.632;2022-08-01T15:33:00;27.30;87.30
39347;DHT22;26262;49.836;6.632;2022-08-01T15:35:26;27.10;89.00
39347;DHT22;26262;49.836;6.632;2022-08-01T15:37:51;27.10;88.50
39347;DHT22;26262;49.836;6.632;2022-08-01T15:40:17;27.30;89.30
39347;DHT22;26262;49.836;6.632;2022-08-01T15:42:42;27.40;88.30
39347;DHT22;26262;49.836;6.632;2022-08-01T15:45:09;27.30;87.30
39347;DHT22;26262;49.836;6.632;2022-08-01T15:47:35;27.30;88.40
39347;DHT22;26262;49.836;6.632;2022-08-01T15:50:00;27.10;87.50
39347;DHT22;26262;49.836;6.632;2022-08-01T15:52:27;27.10;88.40
39347;DHT22;26262;49.836;6.632;2022-08-01T15:54:53;27.30;88.20
39347;DHT22;26262;49.836;6.632;2022-08-01T15:57:18;27.20;87.20
39347;DHT22;26262;49.836;6.632;2022-08-01T15:59:44;27.30;87.60
39347;DHT22;26262;49.836;6.632;2022-08-01T16:02:09;27.30;87.00
39347;DHT22;26262;49.836;6.632;2022-08-01T16:04:35;27.20;86.90
39347;DHT22;26262;49.836;6.632;2022-08-01T16:07:00;27.00;86.30